sensor_id;sensor_type;location;lat;lon;timestamp;P1;durP1;ratioP1;P2;durP2;ratioP2
50591;SDS011;36548;50.506;30.834;2023-05-20T00:00:13;5.02;;;4.55;;
50591;SDS011;36548;50.506;30.834;2023-05-20T00:01:29;5.37;;;4.07;;
50591;SDS011;36548;50.506;30.834;2023-05-20T00:03:49;6.60;;;5.05;;
50591;SDS011;36548;50.506;30.834;2023-05-20T00:05:04;5.27;;;4.77;;
50591;SDS011;36548;50.506;30.834;2023-05-20T00:06:14;5.28;;;4.78;;
50591;SDS011;36548;50.506;30.834;2023-05-20T00:07:31;7.68;;;5.32;;
50591;SDS011;36548;50.506;30.834;2023-05-20T00:08:39;6.02;;;5.45;;
50591;SDS011;36548;50.506;30.834;2023-05-20T00:09:54;5.85;;;4.85;;
50591;SDS011;36548;50.506;30.834;2023-05-20T00:11:03;7.38;;;5.25;;
50591;SDS011;36548;50.506;30.834;2023-05-20T00:12:19;6.53;;;4.65;;
50591;SDS011;36548;50.506;30.834;2023-05-20T00:13:30;5.35;;;4.85;;
50591;SDS011;36548;50.506;30.834;2023-05-20T00:14:45;5.98;;;5.43;;
50591;SDS011;36548;50.506;30.834;2023-05-20T00:15:54;6.77;;;5.50;;
50591;SDS011;36548;50.506;30.834;2023-05-20T00:17:09;6.03;;;5.32;;
50591;SDS011;36548;50.506;30.834;2023-05-20T00:18:19;6.33;;;5.53;;
50591;SDS011;36548;50.506;30.834;2023-05-20T00:19:34;7.67;;;5.63;;
50591;SDS011;36548;50.506;30.834;2023-05-20T00:20:44;5.37;;;4.97;;
50591;SDS011;36548;50.506;30.834;2023-05-20T00:22:00;6.63;;;5.72;;
50591;SDS011;36548;50.506;30.834;2023-05-20T00:23:09;5.80;;;5.30;;
50591;SDS011;36548;50.506;30.834;2023-05-20T00:24:24;6.00;;;5.25;;
50591;SDS011;36548;50.506;30.834;2023-05-20T00:25:33;6.80;;;5.52;;
50591;SDS011;36548;50.506;30.834;2023-05-20T00:26:48;6.07;;;5.40;;
50591;SDS011;36548;50.506;30.834;2023-05-20T00:27:57;8.43;;;5.57;;
50591;SDS011;36548;50.506;30.834;2023-05-20T00:29:12;6.13;;;5.55;;
50591;SDS011;36548;50.506;30.834;2023-05-20T00:30:22;6.75;;;5.35;;
50591;SDS011;36548;50.506;30.834;2023-05-20T00:31:37;6.28;;;5.68;;
50591;SDS011;36548;50.506;30.834;2023-05-20T00:32:47;6.15;;;5.55;;
50591;SDS011;36548;50.506;30.834;2023-05-20T00:34:03;6.07;;;5.47;;
50591;SDS011;36548;50.506;30.834;2023-05-20T00:35:12;6.53;;;5.60;;
50591;SDS011;36548;50.506;30.834;2023-05-20T00:36:27;7.62;;;5.55;;
50591;SDS011;36548;50.506;30.834;2023-05-20T00:37:36;6.75;;;5.75;;
50591;SDS011;36548;50.506;30.834;2023-05-20T00:38:52;6.42;;;5.82;;
50591;SDS011;36548;50.506;30.834;2023-05-20T00:40:02;6.00;;;5.33;;
50591;SDS011;36548;50.506;30.834;2023-05-20T00:41:18;8.72;;;5.85;;
50591;SDS011;36548;50.506;30.834;2023-05-20T00:42:27;5.37;;;4.93;;
50591;SDS011;36548;50.506;30.834;2023-05-20T00:43:43;6.08;;;5.48;;
50591;SDS011;36548;50.506;30.834;2023-05-20T00:44:52;6.60;;;5.72;;
50591;SDS011;36548;50.506;30.834;2023-05-20T00:46:01;6.40;;;5.80;;
50591;SDS011;36548;50.506;30.834;2023-05-20T00:47:17;6.90;;;5.68;;
50591;SDS011;36548;50.506;30.834;2023-05-20T00:48:29;5.08;;;4.58;;
50591;SDS011;36548;50.506;30.834;2023-05-20T00:49:47;5.15;;;4.45;;
50591;SDS011;36548;50.506;30.834;2023-05-20T00:50:59;4.35;;;3.95;;
50591;SDS011;36548;50.506;30.834;2023-05-20T00:52:16;5.43;;;4.15;;
50591;SDS011;36548;50.506;30.834;2023-05-20T00:53:26;5.00;;;3.93;;
50591;SDS011;36548;50.506;30.834;2023-05-20T00:54:41;4.92;;;4.23;;
50591;SDS011;36548;50.506;30.834;2023-05-20T00:55:53;5.45;;;4.95;;
50591;SDS011;36548;50.506;30.834;2023-05-20T00:57:03;4.97;;;4.55;;
50591;SDS011;36548;50.506;30.834;2023-05-20T00:58:20;5.65;;;4.65;;
50591;SDS011;36548;50.506;30.834;2023-05-20T00:59:29;5.70;;;4.50;;
50591;SDS011;36548;50.506;30.834;2023-05-20T01:00:39;5.83;;;4.90;;
50591;SDS011;36548;50.506;30.834;2023-05-20T01:01:54;5.38;;;4.90;;
50591;SDS011;36548;50.506;30.834;2023-05-20T01:03:04;6.22;;;5.22;;
50591;SDS011;36548;50.506;30.834;2023-05-20T01:04:20;5.30;;;4.90;;
50591;SDS011;36548;50.506;30.834;2023-05-20T01:05:30;4.57;;;4.17;;
50591;SDS011;36548;50.506;30.834;2023-05-20T01:06:46;7.12;;;5.03;;
50591;SDS011;36548;50.506;30.834;2023-05-20T01:07:58;5.60;;;5.10;;
50591;SDS011;36548;50.506;30.834;2023-05-20T01:09:08;5.35;;;4.95;;
50591;SDS011;36548;50.506;30.834;2023-05-20T01:10:18;5.65;;;5.15;;
50591;SDS011;36548;50.506;30.834;2023-05-20T01:11:29;6.10;;;5.55;;
50591;SDS011;36548;50.506;30.834;2023-05-20T01:12:48;6.15;;;5.50;;
50591;SDS011;36548;50.506;30.834;2023-05-20T01:14:01;8.78;;;5.12;;
50591;SDS011;36548;50.506;30.834;2023-05-20T01:15:20;4.53;;;4.13;;
50591;SDS011;36548;50.506;30.834;2023-05-20T01:16:31;4.63;;;4.03;;
50591;SDS011;36548;50.506;30.834;2023-05-20T01:17:50;5.53;;;3.83;;
50591;SDS011;36548;50.506;30.834;2023-05-20T01:19:01;4.07;;;3.40;;
50591;SDS011;36548;50.506;30.834;2023-05-20T01:20:20;4.60;;;3.70;;
50591;SDS011;36548;50.506;30.834;2023-05-20T01:21:30;3.93;;;3.62;;
50591;SDS011;36548;50.506;30.834;2023-05-20T01:22:49;5.52;;;3.82;;
50591;SDS011;36548;50.506;30.834;2023-05-20T01:24:09;3.92;;;3.62;;
50591;SDS011;36548;50.506;30.834;2023-05-20T01:25:18;4.85;;;4.20;;
50591;SDS011;36548;50.506;30.834;2023-05-20T01:26:36;4.80;;;4.40;;
50591;SDS011;36548;50.506;30.834;2023-05-20T01:27:47;5.67;;;4.32;;
50591;SDS011;36548;50.506;30.834;2023-05-20T01:29:04;4.47;;;4.07;;
50591;SDS011;36548;50.506;30.834;2023-05-20T01:30:15;5.75;;;4.42;;
50591;SDS011;36548;50.506;30.834;2023-05-20T01:31:32;7.30;;;4.82;;
50591;SDS011;36548;50.506;30.834;2023-05-20T01:32:54;5.00;;;4.30;;
50591;SDS011;36548;50.506;30.834;2023-05-20T01:34:08;5.40;;;4.68;;
50591;SDS011;36548;50.506;30.834;2023-05-20T01:35:19;6.43;;;5.05;;
50591;SDS011;36548;50.506;30.834;2023-05-20T01:36:36;5.47;;;4.68;;
50591;SDS011;36548;50.506;30.834;2023-05-20T01:39:01;5.13;;;4.50;;
50591;SDS011;36548;50.506;30.834;2023-05-20T01:40:14;6.40;;;4.92;;
50591;SDS011;36548;50.506;30.834;2023-05-20T01:41:31;7.25;;;4.05;;
50591;SDS011;36548;50.506;30.834;2023-05-20T01:42:43;5.42;;;4.92;;
50591;SDS011;36548;50.506;30.834;2023-05-20T01:44:01;5.35;;;4.87;;
50591;SDS011;36548;50.506;30.834;2023-05-20T01:45:11;5.70;;;5.20;;
50591;SDS011;36548;50.506;30.834;2023-05-20T01:46:21;5.80;;;5.15;;
50591;SDS011;36548;50.506;30.834;2023-05-20T01:47:37;5.92;;;4.98;;
50591;SDS011;36548;50.506;30.834;2023-05-20T01:50:01;5.15;;;4.60;;
50591;SDS011;36548;50.506;30.834;2023-05-20T01:51:17;4.83;;;4.43;;
50591;SDS011;36548;50.506;30.834;2023-05-20T01:52:27;10.17;;;4.60;;
50591;SDS011;36548;50.506;30.834;2023-05-20T01:55:03;3.65;;;3.22;;
50591;SDS011;36548;50.506;30.834;2023-05-20T01:56:14;3.97;;;3.45;;
50591;SDS011;36548;50.506;30.834;2023-05-20T01:57:30;4.28;;;3.82;;
50591;SDS011;36548;50.506;30.834;2023-05-20T01:58:39;4.22;;;3.72;;
50591;SDS011;36548;50.506;30.834;2023-05-20T01:59:54;4.17;;;3.85;;
50591;SDS011;36548;50.506;30.834;2023-05-20T02:01:03;5.48;;;4.13;;
50591;SDS011;36548;50.506;30.834;2023-05-20T02:02:19;4.62;;;3.87;;
50591;SDS011;36548;50.506;30.834;2023-05-20T02:03:28;4.88;;;3.75;;
50591;SDS011;36548;50.506;30.834;2023-05-20T02:04:44;7.87;;;4.27;;
50591;SDS011;36548;50.506;30.834;2023-05-20T02:05:58;6.00;;;4.20;;
50591;SDS011;36548;50.506;30.834;2023-05-20T02:07:14;4.80;;;3.90;;
50591;SDS011;36548;50.506;30.834;2023-05-20T02:08:24;5.12;;;4.27;;
50591;SDS011;36548;50.506;30.834;2023-05-20T02:09:33;4.08;;;3.70;;
50591;SDS011;36548;50.506;30.834;2023-05-20T02:10:49;5.77;;;4.40;;
50591;SDS011;36548;50.506;30.834;2023-05-20T02:11:58;5.50;;;4.70;;
50591;SDS011;36548;50.506;30.834;2023-05-20T02:13:08;6.20;;;4.65;;
50591;SDS011;36548;50.506;30.834;2023-05-20T02:14:23;5.10;;;4.60;;
50591;SDS011;36548;50.506;30.834;2023-05-20T02:15:33;4.80;;;4.35;;
50591;SDS011;36548;50.506;30.834;2023-05-20T02:16:48;4.70;;;4.30;;
50591;SDS011;36548;50.506;30.834;2023-05-20T02:17:58;6.17;;;4.20;;
50591;SDS011;36548;50.506;30.834;2023-05-20T02:19:11;5.32;;;4.82;;
50591;SDS011;36548;50.506;30.834;2023-05-20T02:20:22;5.23;;;4.45;;
50591;SDS011;36548;50.506;30.834;2023-05-20T02:21:31;5.87;;;4.78;;
50591;SDS011;36548;50.506;30.834;2023-05-20T02:22:48;5.55;;;5.03;;
50591;SDS011;36548;50.506;30.834;2023-05-20T02:23:57;5.12;;;4.60;;
50591;SDS011;36548;50.506;30.834;2023-05-20T02:25:12;4.73;;;4.30;;
50591;SDS011;36548;50.506;30.834;2023-05-20T02:26:21;4.97;;;4.55;;
50591;SDS011;36548;50.506;30.834;2023-05-20T02:27:36;5.15;;;4.43;;
50591;SDS011;36548;50.506;30.834;2023-05-20T02:28:47;5.95;;;4.90;;
50591;SDS011;36548;50.506;30.834;2023-05-20T02:30:04;5.20;;;4.65;;
50591;SDS011;36548;50.506;30.834;2023-05-20T02:31:14;5.40;;;4.90;;
50591;SDS011;36548;50.506;30.834;2023-05-20T02:32:30;6.07;;;5.33;;
50591;SDS011;36548;50.506;30.834;2023-05-20T02:33:41;5.18;;;4.68;;
50591;SDS011;36548;50.506;30.834;2023-05-20T02:34:57;5.72;;;4.72;;
50591;SDS011;36548;50.506;30.834;2023-05-20T02:36:08;6.82;;;4.23;;
50591;SDS011;36548;50.506;30.834;2023-05-20T02:37:23;4.87;;;4.27;;
50591;SDS011;36548;50.506;30.834;2023-05-20T02:38:34;4.92;;;4.35;;
50591;SDS011;36548;50.506;30.834;2023-05-20T02:39:50;5.10;;;4.62;;
50591;SDS011;36548;50.506;30.834;2023-05-20T02:40:59;6.78;;;4.60;;
50591;SDS011;36548;50.506;30.834;2023-05-20T02:42:09;7.67;;;4.77;;
50591;SDS011;36548;50.506;30.834;2023-05-20T02:43:18;6.68;;;5.18;;
50591;SDS011;36548;50.506;30.834;2023-05-20T02:44:33;5.72;;;5.17;;
50591;SDS011;36548;50.506;30.834;2023-05-20T02:45:43;5.10;;;4.55;;
50591;SDS011;36548;50.506;30.834;2023-05-20T02:46:59;3.55;;;3.15;;
50591;SDS011;36548;50.506;30.834;2023-05-20T02:48:09;4.75;;;3.70;;
50591;SDS011;36548;50.506;30.834;2023-05-20T02:49:24;4.32;;;3.74;;
50591;SDS011;36548;50.506;30.834;2023-05-20T02:50:39;4.15;;;3.57;;
50591;SDS011;36548;50.506;30.834;2023-05-20T02:51:48;5.87;;;4.25;;
50591;SDS011;36548;50.506;30.834;2023-05-20T02:53:04;5.15;;;4.65;;
50591;SDS011;36548;50.506;30.834;2023-05-20T02:54:14;5.93;;;4.40;;
50591;SDS011;36548;50.506;30.834;2023-05-20T02:55:32;4.58;;;4.08;;
50591;SDS011;36548;50.506;30.834;2023-05-20T02:56:44;5.45;;;4.40;;
50591;SDS011;36548;50.506;30.834;2023-05-20T02:58:00;5.65;;;4.42;;
50591;SDS011;36548;50.506;30.834;2023-05-20T02:59:10;5.93;;;5.15;;
50591;SDS011;36548;50.506;30.834;2023-05-20T03:00:26;5.27;;;4.77;;
50591;SDS011;36548;50.506;30.834;2023-05-20T03:01:39;5.95;;;4.35;;
50591;SDS011;36548;50.506;30.834;2023-05-20T03:02:54;5.88;;;5.13;;
50591;SDS011;36548;50.506;30.834;2023-05-20T03:04:05;5.80;;;5.20;;
50591;SDS011;36548;50.506;30.834;2023-05-20T03:05:20;5.17;;;4.68;;
50591;SDS011;36548;50.506;30.834;2023-05-20T03:06:29;5.82;;;4.62;;
50591;SDS011;36548;50.506;30.834;2023-05-20T03:07:45;6.10;;;5.38;;
50591;SDS011;36548;50.506;30.834;2023-05-20T03:08:57;5.28;;;4.80;;
50591;SDS011;36548;50.506;30.834;2023-05-20T03:11:20;6.28;;;5.28;;
50591;SDS011;36548;50.506;30.834;2023-05-20T03:12:35;4.97;;;4.37;;
50591;SDS011;36548;50.506;30.834;2023-05-20T03:13:45;6.33;;;4.75;;
50591;SDS011;36548;50.506;30.834;2023-05-20T03:16:13;5.35;;;4.80;;
50591;SDS011;36548;50.506;30.834;2023-05-20T03:17:30;6.23;;;4.53;;
50591;SDS011;36548;50.506;30.834;2023-05-20T03:18:40;5.78;;;5.18;;
50591;SDS011;36548;50.506;30.834;2023-05-20T03:19:55;5.35;;;4.60;;
50591;SDS011;36548;50.506;30.834;2023-05-20T03:21:04;7.70;;;5.65;;
50591;SDS011;36548;50.506;30.834;2023-05-20T03:22:19;5.80;;;5.23;;
50591;SDS011;36548;50.506;30.834;2023-05-20T03:23:29;6.15;;;5.28;;
50591;SDS011;36548;50.506;30.834;2023-05-20T03:24:39;4.50;;;4.15;;
50591;SDS011;36548;50.506;30.834;2023-05-20T03:25:52;5.87;;;5.37;;
50591;SDS011;36548;50.506;30.834;2023-05-20T03:27:03;5.65;;;5.00;;
50591;SDS011;36548;50.506;30.834;2023-05-20T03:28:14;6.20;;;5.00;;
50591;SDS011;36548;50.506;30.834;2023-05-20T03:29:30;5.63;;;4.72;;
50591;SDS011;36548;50.506;30.834;2023-05-20T03:31:51;5.85;;;5.10;;
50591;SDS011;36548;50.506;30.834;2023-05-20T03:33:06;6.87;;;5.83;;
50591;SDS011;36548;50.506;30.834;2023-05-20T03:34:16;5.90;;;5.25;;
50591;SDS011;36548;50.506;30.834;2023-05-20T03:35:32;6.18;;;5.35;;
50591;SDS011;36548;50.506;30.834;2023-05-20T03:36:42;7.28;;;5.35;;
50591;SDS011;36548;50.506;30.834;2023-05-20T03:37:57;6.22;;;5.28;;
50591;SDS011;36548;50.506;30.834;2023-05-20T03:39:06;5.67;;;5.15;;
50591;SDS011;36548;50.506;30.834;2023-05-20T03:40:22;5.50;;;4.85;;
50591;SDS011;36548;50.506;30.834;2023-05-20T03:41:32;5.97;;;5.37;;
50591;SDS011;36548;50.506;30.834;2023-05-20T03:42:47;5.23;;;4.73;;
50591;SDS011;36548;50.506;30.834;2023-05-20T03:44:01;6.00;;;5.15;;
50591;SDS011;36548;50.506;30.834;2023-05-20T03:45:10;5.65;;;5.15;;
50591;SDS011;36548;50.506;30.834;2023-05-20T03:46:26;5.45;;;4.95;;
50591;SDS011;36548;50.506;30.834;2023-05-20T03:47:35;7.20;;;5.08;;
50591;SDS011;36548;50.506;30.834;2023-05-20T03:48:50;8.05;;;5.10;;
50591;SDS011;36548;50.506;30.834;2023-05-20T03:50:00;6.73;;;5.53;;
50591;SDS011;36548;50.506;30.834;2023-05-20T03:51:16;5.70;;;5.20;;
50591;SDS011;36548;50.506;30.834;2023-05-20T03:52:26;6.43;;;5.43;;
50591;SDS011;36548;50.506;30.834;2023-05-20T03:53:42;8.20;;;5.92;;
50591;SDS011;36548;50.506;30.834;2023-05-20T03:54:51;5.60;;;5.10;;
50591;SDS011;36548;50.506;30.834;2023-05-20T03:56:07;6.12;;;5.27;;
50591;SDS011;36548;50.506;30.834;2023-05-20T03:57:17;7.63;;;5.75;;
50591;SDS011;36548;50.506;30.834;2023-05-20T03:58:33;5.22;;;4.75;;
50591;SDS011;36548;50.506;30.834;2023-05-20T03:59:42;6.53;;;5.00;;
50591;SDS011;36548;50.506;30.834;2023-05-20T04:00:52;6.23;;;5.00;;
50591;SDS011;36548;50.506;30.834;2023-05-20T04:02:08;5.17;;;4.65;;
50591;SDS011;36548;50.506;30.834;2023-05-20T04:03:18;7.67;;;5.08;;
50591;SDS011;36548;50.506;30.834;2023-05-20T04:04:53;6.68;;;4.72;;
50591;SDS011;36548;50.506;30.834;2023-05-20T04:06:04;6.42;;;5.22;;
50591;SDS011;36548;50.506;30.834;2023-05-20T04:07:13;7.13;;;5.35;;
50591;SDS011;36548;50.506;30.834;2023-05-20T04:08:28;6.48;;;5.22;;
50591;SDS011;36548;50.506;30.834;2023-05-20T04:09:38;7.82;;;5.23;;
50591;SDS011;36548;50.506;30.834;2023-05-20T04:10:56;30.25;;;7.33;;
50591;SDS011;36548;50.506;30.834;2023-05-20T04:12:06;9.28;;;5.03;;
50591;SDS011;36548;50.506;30.834;2023-05-20T04:13:23;5.78;;;4.87;;
50591;SDS011;36548;50.506;30.834;2023-05-20T04:14:32;6.07;;;5.20;;
50591;SDS011;36548;50.506;30.834;2023-05-20T04:15:48;5.92;;;5.30;;
50591;SDS011;36548;50.506;30.834;2023-05-20T04:17:04;5.58;;;4.97;;
50591;SDS011;36548;50.506;30.834;2023-05-20T04:18:18;6.13;;;4.88;;
50591;SDS011;36548;50.506;30.834;2023-05-20T04:19:28;5.28;;;4.77;;
50591;SDS011;36548;50.506;30.834;2023-05-20T04:20:47;7.20;;;4.68;;
50591;SDS011;36548;50.506;30.834;2023-05-20T04:22:22;48.55;;;44.33;;
50591;SDS011;36548;50.506;30.834;2023-05-20T04:23:32;45.95;;;41.80;;
50591;SDS011;36548;50.506;30.834;2023-05-20T04:24:47;21.47;;;19.40;;
50591;SDS011;36548;50.506;30.834;2023-05-20T04:25:57;8.05;;;7.25;;
50591;SDS011;36548;50.506;30.834;2023-05-20T04:27:15;7.13;;;5.62;;
50591;SDS011;36548;50.506;30.834;2023-05-20T04:28:25;6.22;;;5.33;;
50591;SDS011;36548;50.506;30.834;2023-05-20T04:29:42;5.63;;;5.07;;
50591;SDS011;36548;50.506;30.834;2023-05-20T04:30:57;5.67;;;4.80;;
50591;SDS011;36548;50.506;30.834;2023-05-20T04:32:08;7.40;;;4.95;;
50591;SDS011;36548;50.506;30.834;2023-05-20T04:33:19;5.15;;;4.75;;
50591;SDS011;36548;50.506;30.834;2023-05-20T04:34:34;6.68;;;4.40;;
50591;SDS011;36548;50.506;30.834;2023-05-20T04:35:45;5.55;;;4.22;;
50591;SDS011;36548;50.506;30.834;2023-05-20T04:37:02;6.63;;;4.95;;
50591;SDS011;36548;50.506;30.834;2023-05-20T04:38:11;4.98;;;4.48;;
50591;SDS011;36548;50.506;30.834;2023-05-20T04:39:26;6.03;;;4.68;;
50591;SDS011;36548;50.506;30.834;2023-05-20T04:40:36;5.24;;;4.70;;
50591;SDS011;36548;50.506;30.834;2023-05-20T04:41:53;5.92;;;4.85;;
50591;SDS011;36548;50.506;30.834;2023-05-20T04:43:05;8.45;;;4.80;;
50591;SDS011;36548;50.506;30.834;2023-05-20T04:44:21;8.87;;;4.60;;
50591;SDS011;36548;50.506;30.834;2023-05-20T04:45:32;4.93;;;4.53;;
50591;SDS011;36548;50.506;30.834;2023-05-20T04:46:43;6.77;;;5.02;;
50591;SDS011;36548;50.506;30.834;2023-05-20T04:48:01;5.90;;;4.90;;
50591;SDS011;36548;50.506;30.834;2023-05-20T04:49:11;6.45;;;4.75;;
50591;SDS011;36548;50.506;30.834;2023-05-20T04:50:27;8.23;;;5.47;;
50591;SDS011;36548;50.506;30.834;2023-05-20T04:51:37;5.50;;;4.75;;
50591;SDS011;36548;50.506;30.834;2023-05-20T04:52:52;5.30;;;4.70;;
50591;SDS011;36548;50.506;30.834;2023-05-20T04:54:01;5.38;;;4.80;;
50591;SDS011;36548;50.506;30.834;2023-05-20T04:55:10;6.95;;;4.68;;
50591;SDS011;36548;50.506;30.834;2023-05-20T04:56:26;5.15;;;4.58;;
50591;SDS011;36548;50.506;30.834;2023-05-20T04:57:35;6.80;;;4.66;;
50591;SDS011;36548;50.506;30.834;2023-05-20T04:58:53;5.25;;;4.52;;
50591;SDS011;36548;50.506;30.834;2023-05-20T05:01:21;5.52;;;4.97;;
50591;SDS011;36548;50.506;30.834;2023-05-20T05:02:31;5.15;;;4.65;;
50591;SDS011;36548;50.506;30.834;2023-05-20T05:03:46;5.13;;;4.57;;
50591;SDS011;36548;50.506;30.834;2023-05-20T05:06:07;5.13;;;4.65;;
50591;SDS011;36548;50.506;30.834;2023-05-20T05:07:23;4.93;;;4.28;;
50591;SDS011;36548;50.506;30.834;2023-05-20T05:08:33;7.24;;;4.24;;
50591;SDS011;36548;50.506;30.834;2023-05-20T05:09:43;5.25;;;4.15;;
50591;SDS011;36548;50.506;30.834;2023-05-20T05:10:53;5.95;;;3.98;;
50591;SDS011;36548;50.506;30.834;2023-05-20T05:12:03;5.93;;;4.12;;
50591;SDS011;36548;50.506;30.834;2023-05-20T05:13:19;6.48;;;4.03;;
50591;SDS011;36548;50.506;30.834;2023-05-20T05:14:29;7.97;;;4.65;;
50591;SDS011;36548;50.506;30.834;2023-05-20T05:15:44;6.73;;;4.78;;
50591;SDS011;36548;50.506;30.834;2023-05-20T05:16:53;6.35;;;5.73;;
50591;SDS011;36548;50.506;30.834;2023-05-20T05:18:03;5.10;;;4.45;;
50591;SDS011;36548;50.506;30.834;2023-05-20T05:19:13;6.16;;;4.50;;
50591;SDS011;36548;50.506;30.834;2023-05-20T05:20:30;5.25;;;4.28;;
50591;SDS011;36548;50.506;30.834;2023-05-20T05:21:38;5.52;;;4.27;;
50591;SDS011;36548;50.506;30.834;2023-05-20T05:22:48;5.20;;;4.70;;
50591;SDS011;36548;50.506;30.834;2023-05-20T05:24:12;5.08;;;3.92;;
50591;SDS011;36548;50.506;30.834;2023-05-20T05:25:22;10.58;;;7.75;;
50591;SDS011;36548;50.506;30.834;2023-05-20T05:26:37;8.25;;;5.53;;
50591;SDS011;36548;50.506;30.834;2023-05-20T05:27:46;9.20;;;8.30;;
50591;SDS011;36548;50.506;30.834;2023-05-20T05:28:58;4.78;;;4.38;;
50591;SDS011;36548;50.506;30.834;2023-05-20T05:30:13;4.72;;;4.25;;
50591;SDS011;36548;50.506;30.834;2023-05-20T05:31:22;4.07;;;3.77;;
50591;SDS011;36548;50.506;30.834;2023-05-20T05:32:37;5.85;;;4.03;;
50591;SDS011;36548;50.506;30.834;2023-05-20T05:33:46;4.88;;;4.03;;
50591;SDS011;36548;50.506;30.834;2023-05-20T05:35:01;4.05;;;3.70;;
50591;SDS011;36548;50.506;30.834;2023-05-20T05:36:11;3.80;;;3.30;;
50591;SDS011;36548;50.506;30.834;2023-05-20T05:37:26;5.23;;;4.17;;
50591;SDS011;36548;50.506;30.834;2023-05-20T05:38:35;4.30;;;3.67;;
50591;SDS011;36548;50.506;30.834;2023-05-20T05:39:50;4.43;;;4.03;;
50591;SDS011;36548;50.506;30.834;2023-05-20T05:40:59;4.73;;;4.28;;
50591;SDS011;36548;50.506;30.834;2023-05-20T05:42:15;5.75;;;4.32;;
50591;SDS011;36548;50.506;30.834;2023-05-20T05:43:24;4.45;;;4.10;;
50591;SDS011;36548;50.506;30.834;2023-05-20T05:44:39;6.18;;;4.08;;
50591;SDS011;36548;50.506;30.834;2023-05-20T05:45:48;8.00;;;4.37;;
50591;SDS011;36548;50.506;30.834;2023-05-20T05:46:59;6.05;;;4.03;;
50591;SDS011;36548;50.506;30.834;2023-05-20T05:48:14;5.00;;;4.55;;
50591;SDS011;36548;50.506;30.834;2023-05-20T05:49:23;4.43;;;4.02;;
50591;SDS011;36548;50.506;30.834;2023-05-20T05:50:38;9.28;;;4.18;;
50591;SDS011;36548;50.506;30.834;2023-05-20T05:51:50;4.55;;;3.90;;
50591;SDS011;36548;50.506;30.834;2023-05-20T05:53:05;4.95;;;3.73;;
50591;SDS011;36548;50.506;30.834;2023-05-20T05:54:16;7.95;;;4.22;;
50591;SDS011;36548;50.506;30.834;2023-05-20T05:55:32;5.82;;;4.18;;
50591;SDS011;36548;50.506;30.834;2023-05-20T05:56:41;5.78;;;4.37;;
50591;SDS011;36548;50.506;30.834;2023-05-20T05:57:56;4.80;;;4.22;;
50591;SDS011;36548;50.506;30.834;2023-05-20T05:59:06;4.90;;;4.50;;
50591;SDS011;36548;50.506;30.834;2023-05-20T06:00:22;5.37;;;4.42;;
50591;SDS011;36548;50.506;30.834;2023-05-20T06:01:32;4.75;;;4.30;;
50591;SDS011;36548;50.506;30.834;2023-05-20T06:02:42;4.80;;;4.30;;
50591;SDS011;36548;50.506;30.834;2023-05-20T06:03:57;5.30;;;4.77;;
50591;SDS011;36548;50.506;30.834;2023-05-20T06:05:07;5.00;;;4.48;;
50591;SDS011;36548;50.506;30.834;2023-05-20T06:06:24;4.70;;;3.80;;
50591;SDS011;36548;50.506;30.834;2023-05-20T06:07:34;5.40;;;4.00;;
50591;SDS011;36548;50.506;30.834;2023-05-20T06:08:49;5.82;;;3.80;;
50591;SDS011;36548;50.506;30.834;2023-05-20T06:09:59;4.28;;;3.85;;
50591;SDS011;36548;50.506;30.834;2023-05-20T06:11:14;3.70;;;3.40;;
50591;SDS011;36548;50.506;30.834;2023-05-20T06:12:24;5.20;;;3.60;;
50591;SDS011;36548;50.506;30.834;2023-05-20T06:13:40;5.27;;;3.67;;
50591;SDS011;36548;50.506;30.834;2023-05-20T06:14:50;5.65;;;3.70;;
50591;SDS011;36548;50.506;30.834;2023-05-20T06:16:05;6.83;;;4.32;;
50591;SDS011;36548;50.506;30.834;2023-05-20T06:17:15;3.80;;;3.45;;
50591;SDS011;36548;50.506;30.834;2023-05-20T06:18:31;3.96;;;3.58;;
50591;SDS011;36548;50.506;30.834;2023-05-20T06:19:42;5.13;;;4.12;;
50591;SDS011;36548;50.506;30.834;2023-05-20T06:20:57;4.62;;;3.35;;
50591;SDS011;36548;50.506;30.834;2023-05-20T06:22:07;6.05;;;3.85;;
50591;SDS011;36548;50.506;30.834;2023-05-20T06:23:28;4.78;;;3.86;;
50591;SDS011;36548;50.506;30.834;2023-05-20T06:25:57;4.57;;;3.57;;
50591;SDS011;36548;50.506;30.834;2023-05-20T06:27:06;4.50;;;4.05;;
50591;SDS011;36548;50.506;30.834;2023-05-20T06:28:21;5.77;;;4.30;;
50591;SDS011;36548;50.506;30.834;2023-05-20T06:29:30;4.57;;;3.82;;
50591;SDS011;36548;50.506;30.834;2023-05-20T06:30:39;5.03;;;3.57;;
50591;SDS011;36548;50.506;30.834;2023-05-20T06:31:55;4.22;;;3.75;;
50591;SDS011;36548;50.506;30.834;2023-05-20T06:33:04;5.00;;;4.15;;
50591;SDS011;36548;50.506;30.834;2023-05-20T06:34:14;4.50;;;3.70;;
50591;SDS011;36548;50.506;30.834;2023-05-20T06:35:30;5.35;;;3.70;;
50591;SDS011;36548;50.506;30.834;2023-05-20T06:36:42;4.42;;;4.05;;
50591;SDS011;36548;50.506;30.834;2023-05-20T06:37:50;5.78;;;3.90;;
50591;SDS011;36548;50.506;30.834;2023-05-20T06:39:01;8.95;;;4.15;;
50591;SDS011;36548;50.506;30.834;2023-05-20T06:40:16;5.33;;;4.05;;
50591;SDS011;36548;50.506;30.834;2023-05-20T06:41:26;5.62;;;3.93;;
50591;SDS011;36548;50.506;30.834;2023-05-20T06:42:35;4.83;;;3.93;;
50591;SDS011;36548;50.506;30.834;2023-05-20T06:43:45;5.95;;;3.58;;
50591;SDS011;36548;50.506;30.834;2023-05-20T06:45:00;6.82;;;3.65;;
50591;SDS011;36548;50.506;30.834;2023-05-20T06:46:44;5.70;;;3.90;;
50591;SDS011;36548;50.506;30.834;2023-05-20T06:47:59;4.62;;;3.24;;
50591;SDS011;36548;50.506;30.834;2023-05-20T06:49:09;7.17;;;3.68;;
50591;SDS011;36548;50.506;30.834;2023-05-20T06:50:24;9.18;;;4.17;;
50591;SDS011;36548;50.506;30.834;2023-05-20T06:51:36;11.73;;;4.28;;
50591;SDS011;36548;50.506;30.834;2023-05-20T06:52:51;4.88;;;3.58;;
50591;SDS011;36548;50.506;30.834;2023-05-20T06:54:00;4.83;;;3.88;;
50591;SDS011;36548;50.506;30.834;2023-05-20T06:55:15;4.77;;;4.02;;
50591;SDS011;36548;50.506;30.834;2023-05-20T06:56:25;6.70;;;5.50;;
50591;SDS011;36548;50.506;30.834;2023-05-20T06:57:35;8.80;;;6.75;;
50591;SDS011;36548;50.506;30.834;2023-05-20T06:58:51;7.70;;;5.20;;
50591;SDS011;36548;50.506;30.834;2023-05-20T07:00:00;8.53;;;3.97;;
50591;SDS011;36548;50.506;30.834;2023-05-20T07:01:16;6.45;;;4.15;;
50591;SDS011;36548;50.506;30.834;2023-05-20T07:02:27;6.68;;;4.00;;
50591;SDS011;36548;50.506;30.834;2023-05-20T07:03:42;5.23;;;4.10;;
50591;SDS011;36548;50.506;30.834;2023-05-20T07:04:52;7.17;;;4.37;;
50591;SDS011;36548;50.506;30.834;2023-05-20T07:06:08;4.40;;;3.85;;
50591;SDS011;36548;50.506;30.834;2023-05-20T07:07:18;4.55;;;3.82;;
50591;SDS011;36548;50.506;30.834;2023-05-20T07:08:28;4.75;;;4.05;;
50591;SDS011;36548;50.506;30.834;2023-05-20T07:09:39;4.35;;;3.70;;
50591;SDS011;36548;50.506;30.834;2023-05-20T07:10:55;4.34;;;3.94;;
50591;SDS011;36548;50.506;30.834;2023-05-20T07:12:05;10.17;;;4.15;;
50591;SDS011;36548;50.506;30.834;2023-05-20T07:13:16;4.45;;;3.52;;
50591;SDS011;36548;50.506;30.834;2023-05-20T07:14:31;4.03;;;3.55;;
50591;SDS011;36548;50.506;30.834;2023-05-20T07:15:41;3.85;;;3.33;;
50591;SDS011;36548;50.506;30.834;2023-05-20T07:17:02;7.87;;;3.62;;
50591;SDS011;36548;50.506;30.834;2023-05-20T07:18:13;5.63;;;3.85;;
50591;SDS011;36548;50.506;30.834;2023-05-20T07:19:28;4.72;;;3.73;;
50591;SDS011;36548;50.506;30.834;2023-05-20T07:20:37;5.50;;;4.23;;
50591;SDS011;36548;50.506;30.834;2023-05-20T07:21:49;6.45;;;4.05;;
50591;SDS011;36548;50.506;30.834;2023-05-20T07:23:04;122.00;;;13.63;;
50591;SDS011;36548;50.506;30.834;2023-05-20T07:24:18;10.32;;;3.78;;